sensor_id;sensor_type;location;lat;lon;timestamp;pressure;altitude;pressure_sealevel;temperature;humidity
58072;BME280;60383;46.626;18.866;2023-07-31T00:01:59;100130.34;;;20.57;89.31
58072;BME280;60383;46.626;18.866;2023-07-31T00:04:24;100124.78;;;20.57;89.16
58072;BME280;60383;46.626;18.866;2023-07-31T00:06:49;100124.63;;;20.52;89.09
58072;BME280;60383;46.626;18.866;2023-07-31T00:09:15;100124.25;;;20.48;89.84
58072;BME280;60383;46.626;18.866;2023-07-31T00:11:40;100120.44;;;20.42;89.80
58072;BME280;60383;46.626;18.866;2023-07-31T00:14:06;100122.41;;;20.42;90.13
58072;BME280;60383;46.626;18.866;2023-07-31T00:16:31;100126.00;;;20.42;90.31
58072;BME280;60383;46.626;18.866;2023-07-31T00:18:57;100126.19;;;20.48;90.10
58072;BME280;60383;46.626;18.866;2023-07-31T00:21:22;100127.94;;;20.42;90.39
58072;BME280;60383;46.626;18.866;2023-07-31T00:23:48;100135.84;;;20.45;90.11
58072;BME280;60383;46.626;18.866;2023-07-31T00:26:13;100131.19;;;20.39;90.09
58072;BME280;60383;46.626;18.866;2023-07-31T00:28:39;100124.34;;;20.41;90.25
58072;BME280;60383;46.626;18.866;2023-07-31T00:31:04;100125.19;;;20.42;90.00
58072;BME280;60383;46.626;18.866;2023-07-31T00:33:31;100124.00;;;20.50;89.73
58072;BME280;60383;46.626;18.866;2023-07-31T00:35:56;100128.63;;;20.37;90.15
58072;BME280;60383;46.626;18.866;2023-07-31T00:38:22;100134.69;;;20.34;90.49
58072;BME280;60383;46.626;18.866;2023-07-31T00:40:47;100136.59;;;20.34;90.81
58072;BME280;60383;46.626;18.866;2023-07-31T00:43:13;100123.72;;;20.39;90.69
58072;BME280;60383;46.626;18.866;2023-07-31T00:45:38;100129.31;;;20.33;90.70
58072;BME280;60383;46.626;18.866;2023-07-31T00:48:04;100113.56;;;20.26;91.01
58072;BME280;60383;46.626;18.866;2023-07-31T00:50:33;100127.47;;;20.26;91.54
58072;BME280;60383;46.626;18.866;2023-07-31T00:52:58;100136.88;;;20.25;91.60
58072;BME280;60383;46.626;18.866;2023-07-31T00:55:24;100127.16;;;20.35;91.21
58072;BME280;60383;46.626;18.866;2023-07-31T00:57:50;100135.75;;;20.33;91.17
58072;BME280;60383;46.626;18.866;2023-07-31T01:00:18;100138.53;;;20.33;91.25
58072;BME280;60383;46.626;18.866;2023-07-31T01:02:43;100139.91;;;20.42;90.80
58072;BME280;60383;46.626;18.866;2023-07-31T01:05:09;100140.13;;;20.22;91.72
58072;BME280;60383;46.626;18.866;2023-07-31T01:10:20;100145.94;;;20.21;92.04
58072;BME280;60383;46.626;18.866;2023-07-31T01:12:48;100147.56;;;20.29;91.96
58072;BME280;60383;46.626;18.866;2023-07-31T01:15:13;100143.31;;;20.26;91.92
58072;BME280;60383;46.626;18.866;2023-07-31T01:17:41;100137.13;;;20.24;92.00
58072;BME280;60383;46.626;18.866;2023-07-31T01:20:12;100141.16;;;20.03;93.01
58072;BME280;60383;46.626;18.866;2023-07-31T01:22:54;100142.16;;;20.08;92.99
58072;BME280;60383;46.626;18.866;2023-07-31T01:28:11;100149.28;;;20.04;93.34
58072;BME280;60383;46.626;18.866;2023-07-31T01:30:42;100143.06;;;20.02;93.30
58072;BME280;60383;46.626;18.866;2023-07-31T01:33:08;100146.50;;;20.04;93.19
58072;BME280;60383;46.626;18.866;2023-07-31T01:35:36;100144.16;;;20.01;93.48
58072;BME280;60383;46.626;18.866;2023-07-31T01:38:01;100139.56;;;20.14;92.78
58072;BME280;60383;46.626;18.866;2023-07-31T01:40:27;100144.09;;;20.33;91.48
58072;BME280;60383;46.626;18.866;2023-07-31T01:42:52;100139.34;;;20.15;92.12
58072;BME280;60383;46.626;18.866;2023-07-31T01:45:18;100137.75;;;20.01;91.94
58072;BME280;60383;46.626;18.866;2023-07-31T01:47:43;100138.31;;;20.09;92.11
58072;BME280;60383;46.626;18.866;2023-07-31T01:50:09;100135.38;;;20.04;91.79
58072;BME280;60383;46.626;18.866;2023-07-31T01:52:34;100130.25;;;20.01;90.95
58072;BME280;60383;46.626;18.866;2023-07-31T01:55:00;100123.34;;;20.10;90.91
58072;BME280;60383;46.626;18.866;2023-07-31T01:57:26;100124.81;;;20.13;90.63
58072;BME280;60383;46.626;18.866;2023-07-31T01:59:51;100126.50;;;20.14;89.42
58072;BME280;60383;46.626;18.866;2023-07-31T02:02:18;100118.69;;;20.04;89.78
58072;BME280;60383;46.626;18.866;2023-07-31T02:04:44;100126.59;;;20.07;89.69
58072;BME280;60383;46.626;18.866;2023-07-31T02:07:10;100125.16;;;19.98;89.83
58072;BME280;60383;46.626;18.866;2023-07-31T02:09:35;100125.84;;;19.93;88.68
58072;BME280;60383;46.626;18.866;2023-07-31T02:12:00;100130.41;;;19.81;89.40
58072;BME280;60383;46.626;18.866;2023-07-31T02:14:26;100128.69;;;19.80;89.47
58072;BME280;60383;46.626;18.866;2023-07-31T02:16:51;100127.06;;;19.72;88.89
58072;BME280;60383;46.626;18.866;2023-07-31T02:19:17;100127.22;;;19.77;89.66
58072;BME280;60383;46.626;18.866;2023-07-31T02:21:42;100128.31;;;19.76;89.31
58072;BME280;60383;46.626;18.866;2023-07-31T02:24:08;100125.69;;;19.82;89.39
58072;BME280;60383;46.626;18.866;2023-07-31T02:26:33;100132.41;;;19.67;89.06
58072;BME280;60383;46.626;18.866;2023-07-31T02:28:59;100130.59;;;19.54;89.31
58072;BME280;60383;46.626;18.866;2023-07-31T02:31:24;100143.81;;;19.91;87.74
58072;BME280;60383;46.626;18.866;2023-07-31T02:33:50;100140.88;;;19.86;88.42
58072;BME280;60383;46.626;18.866;2023-07-31T02:36:15;100152.25;;;19.71;88.65
58072;BME280;60383;46.626;18.866;2023-07-31T02:38:40;100149.69;;;19.76;88.30
58072;BME280;60383;46.626;18.866;2023-07-31T02:41:06;100144.94;;;19.83;89.25
58072;BME280;60383;46.626;18.866;2023-07-31T02:43:31;100158.81;;;19.83;88.72
58072;BME280;60383;46.626;18.866;2023-07-31T02:45:57;100158.06;;;19.69;88.43
58072;BME280;60383;46.626;18.866;2023-07-31T02:48:23;100163.38;;;19.71;88.22
58072;BME280;60383;46.626;18.866;2023-07-31T02:50:48;100177.09;;;19.66;88.24
58072;BME280;60383;46.626;18.866;2023-07-31T02:53:14;100178.22;;;19.58;88.15
58072;BME280;60383;46.626;18.866;2023-07-31T02:55:39;100176.03;;;19.67;88.13
58072;BME280;60383;46.626;18.866;2023-07-31T02:58:05;100172.19;;;19.68;87.97
58072;BME280;60383;46.626;18.866;2023-07-31T03:00:30;100179.53;;;19.55;88.04
58072;BME280;60383;46.626;18.866;2023-07-31T03:02:56;100183.06;;;19.69;87.75
58072;BME280;60383;46.626;18.866;2023-07-31T03:05:21;100176.13;;;19.46;88.68
58072;BME280;60383;46.626;18.866;2023-07-31T03:07:47;100174.72;;;19.37;88.66
58072;BME280;60383;46.626;18.866;2023-07-31T03:10:12;100185.66;;;19.19;89.66
58072;BME280;60383;46.626;18.866;2023-07-31T03:12:38;100187.84;;;19.10;90.09
58072;BME280;60383;46.626;18.866;2023-07-31T03:15:03;100188.91;;;19.15;90.40
58072;BME280;60383;46.626;18.866;2023-07-31T03:17:29;100198.00;;;19.36;89.33
58072;BME280;60383;46.626;18.866;2023-07-31T03:19:54;100205.84;;;19.46;89.10
58072;BME280;60383;46.626;18.866;2023-07-31T03:22:20;100205.84;;;19.39;88.65
58072;BME280;60383;46.626;18.866;2023-07-31T03:24:45;100212.38;;;19.58;88.14
58072;BME280;60383;46.626;18.866;2023-07-31T03:27:11;100208.31;;;19.61;87.21
58072;BME280;60383;46.626;18.866;2023-07-31T03:29:36;100209.63;;;19.58;87.00
58072;BME280;60383;46.626;18.866;2023-07-31T03:32:02;100211.16;;;19.47;87.33
58072;BME280;60383;46.626;18.866;2023-07-31T03:34:27;100221.53;;;19.66;86.74
58072;BME280;60383;46.626;18.866;2023-07-31T03:36:53;100218.53;;;19.67;85.93
58072;BME280;60383;46.626;18.866;2023-07-31T03:39:18;100224.91;;;19.74;85.67
58072;BME280;60383;46.626;18.866;2023-07-31T03:41:44;100220.88;;;19.70;85.06
58072;BME280;60383;46.626;18.866;2023-07-31T03:44:09;100226.38;;;19.84;84.26
58072;BME280;60383;46.626;18.866;2023-07-31T03:46:35;100221.34;;;19.60;84.95
58072;BME280;60383;46.626;18.866;2023-07-31T03:49:01;100217.09;;;19.58;85.15
58072;BME280;60383;46.626;18.866;2023-07-31T03:51:26;100219.16;;;19.69;84.90
58072;BME280;60383;46.626;18.866;2023-07-31T03:53:52;100222.53;;;19.85;84.16
58072;BME280;60383;46.626;18.866;2023-07-31T03:56:17;100214.94;;;19.99;83.46
58072;BME280;60383;46.626;18.866;2023-07-31T03:58:43;100204.97;;;20.16;82.39
58072;BME280;60383;46.626;18.866;2023-07-31T04:01:08;100207.19;;;20.07;82.64
58072;BME280;60383;46.626;18.866;2023-07-31T04:03:34;100215.06;;;20.10;82.16
58072;BME280;60383;46.626;18.866;2023-07-31T04:05:59;100219.78;;;20.10;81.73
58072;BME280;60383;46.626;18.866;2023-07-31T04:08:25;100217.91;;;20.04;82.05
58072;BME280;60383;46.626;18.866;2023-07-31T04:10:50;100218.88;;;19.84;81.96
58072;BME280;60383;46.626;18.866;2023-07-31T04:13:16;100216.00;;;19.98;81.84
58072;BME280;60383;46.626;18.866;2023-07-31T04:15:41;100217.22;;;20.08;81.85
58072;BME280;60383;46.626;18.866;2023-07-31T04:18:07;100217.91;;;20.29;80.56
58072;BME280;60383;46.626;18.866;2023-07-31T04:20:33;100213.38;;;20.35;80.16
58072;BME280;60383;46.626;18.866;2023-07-31T04:22:58;100219.16;;;20.33;80.32
58072;BME280;60383;46.626;18.866;2023-07-31T04:25:24;100220.13;;;20.20;80.24
58072;BME280;60383;46.626;18.866;2023-07-31T04:27:49;100219.44;;;20.25;80.34
58072;BME280;60383;46.626;18.866;2023-07-31T04:30:15;100225.34;;;20.10;80.50
58072;BME280;60383;46.626;18.866;2023-07-31T04:32:40;100223.47;;;20.29;80.96
58072;BME280;60383;46.626;18.866;2023-07-31T04:35:06;100226.09;;;20.24;80.09
58072;BME280;60383;46.626;18.866;2023-07-31T04:37:31;100231.59;;;20.31;79.82
58072;BME280;60383;46.626;18.866;2023-07-31T04:39:57;100226.44;;;20.34;80.29
58072;BME280;60383;46.626;18.866;2023-07-31T04:42:22;100231.59;;;20.31;79.74
58072;BME280;60383;46.626;18.866;2023-07-31T04:44:48;100231.53;;;20.37;78.96
58072;BME280;60383;46.626;18.866;2023-07-31T04:47:13;100231.00;;;20.47;78.40
58072;BME280;60383;46.626;18.866;2023-07-31T04:49:39;100224.47;;;20.41;78.94
58072;BME280;60383;46.626;18.866;2023-07-31T04:52:04;100227.22;;;20.41;78.94
58072;BME280;60383;46.626;18.866;2023-07-31T04:54:30;100236.97;;;20.51;78.56
58072;BME280;60383;46.626;18.866;2023-07-31T04:56:55;100241.13;;;20.41;78.32
58072;BME280;60383;46.626;18.866;2023-07-31T04:59:21;100243.72;;;20.62;76.96
58072;BME280;60383;46.626;18.866;2023-07-31T05:01:46;100243.81;;;20.55;78.03
58072;BME280;60383;46.626;18.866;2023-07-31T05:04:13;100247.06;;;20.70;76.96
58072;BME280;60383;46.626;18.866;2023-07-31T05:06:39;100253.78;;;20.88;76.19
58072;BME280;60383;46.626;18.866;2023-07-31T05:09:04;100252.22;;;20.73;76.55
58072;BME280;60383;46.626;18.866;2023-07-31T05:11:30;100254.63;;;20.63;76.43
58072;BME280;60383;46.626;18.866;2023-07-31T05:13:55;100265.06;;;20.68;77.18
58072;BME280;60383;46.626;18.866;2023-07-31T05:16:21;100267.63;;;20.69;76.67
58072;BME280;60383;46.626;18.866;2023-07-31T05:18:47;100261.41;;;20.74;76.45
58072;BME280;60383;46.626;18.866;2023-07-31T05:21:12;100266.44;;;20.84;76.26
58072;BME280;60383;46.626;18.866;2023-07-31T05:23:38;100264.28;;;20.86;75.42
58072;BME280;60383;46.626;18.866;2023-07-31T05:26:07;100263.09;;;20.75;76.07
58072;BME280;60383;46.626;18.866;2023-07-31T05:28:35;100270.09;;;20.84;74.88
58072;BME280;60383;46.626;18.866;2023-07-31T05:31:01;100271.25;;;20.95;74.55
58072;BME280;60383;46.626;18.866;2023-07-31T05:33:27;100276.19;;;20.93;74.99
58072;BME280;60383;46.626;18.866;2023-07-31T05:35:53;100267.06;;;20.86;74.76
58072;BME280;60383;46.626;18.866;2023-07-31T05:38:18;100269.94;;;20.79;74.94
58072;BME280;60383;46.626;18.866;2023-07-31T05:40:44;100266.78;;;21.13;73.79
58072;BME280;60383;46.626;18.866;2023-07-31T05:43:10;100260.47;;;21.24;72.67
58072;BME280;60383;46.626;18.866;2023-07-31T05:45:36;100267.31;;;21.21;72.05
58072;BME280;60383;46.626;18.866;2023-07-31T05:48:03;100251.84;;;21.44;73.19
58072;BME280;60383;46.626;18.866;2023-07-31T05:50:30;100251.03;;;21.55;70.55
58072;BME280;60383;46.626;18.866;2023-07-31T05:52:55;100258.81;;;21.53;71.73
58072;BME280;60383;46.626;18.866;2023-07-31T05:55:21;100260.06;;;21.58;70.92
58072;BME280;60383;46.626;18.866;2023-07-31T05:57:46;100261.06;;;21.63;68.91
58072;BME280;60383;46.626;18.866;2023-07-31T06:00:13;100269.09;;;21.72;68.84
58072;BME280;60383;46.626;18.866;2023-07-31T06:02:39;100269.88;;;21.79;66.42
58072;BME280;60383;46.626;18.866;2023-07-31T06:05:05;100268.47;;;21.69;67.07
58072;BME280;60383;46.626;18.866;2023-07-31T06:07:33;100282.03;;;21.66;68.27
58072;BME280;60383;46.626;18.866;2023-07-31T06:09:59;100286.00;;;21.58;66.04
58072;BME280;60383;46.626;18.866;2023-07-31T06:12:33;100281.50;;;21.57;66.54
58072;BME280;60383;46.626;18.866;2023-07-31T06:14:59;100277.66;;;21.58;65.68
58072;BME280;60383;46.626;18.866;2023-07-31T06:17:25;100281.78;;;21.67;65.37
58072;BME280;60383;46.626;18.866;2023-07-31T06:19:51;100285.91;;;21.65;64.72
58072;BME280;60383;46.626;18.866;2023-07-31T06:22:17;100278.06;;;21.74;64.68
58072;BME280;60383;46.626;18.866;2023-07-31T06:24:42;100289.69;;;21.70;64.75
58072;BME280;60383;46.626;18.866;2023-07-31T06:27:08;100290.91;;;21.75;65.14
58072;BME280;60383;46.626;18.866;2023-07-31T06:29:34;100281.16;;;21.84;62.72
58072;BME280;60383;46.626;18.866;2023-07-31T06:32:00;100283.44;;;21.57;62.30
58072;BME280;60383;46.626;18.866;2023-07-31T06:34:25;100277.91;;;21.68;63.53
58072;BME280;60383;46.626;18.866;2023-07-31T06:36:50;100277.22;;;21.73;61.18
58072;BME280;60383;46.626;18.866;2023-07-31T06:39:16;100284.75;;;21.73;60.20
58072;BME280;60383;46.626;18.866;2023-07-31T06:41:42;100280.47;;;21.70;61.17
58072;BME280;60383;46.626;18.866;2023-07-31T06:44:08;100276.13;;;22.05;60.69
58072;BME280;60383;46.626;18.866;2023-07-31T06:46:33;100283.03;;;22.02;59.89
58072;BME280;60383;46.626;18.866;2023-07-31T06:48:59;100286.47;;;22.16;59.84
58072;BME280;60383;46.626;18.866;2023-07-31T06:51:24;100277.84;;;22.17;59.06
58072;BME280;60383;46.626;18.866;2023-07-31T06:53:50;100276.00;;;22.42;57.95
58072;BME280;60383;46.626;18.866;2023-07-31T06:56:15;100274.31;;;22.53;56.10
58072;BME280;60383;46.626;18.866;2023-07-31T06:58:41;100272.63;;;22.52;56.96
58072;BME280;60383;46.626;18.866;2023-07-31T07:01:06;100268.63;;;22.59;55.66
58072;BME280;60383;46.626;18.866;2023-07-31T07:03:32;100278.94;;;22.59;55.16
58072;BME280;60383;46.626;18.866;2023-07-31T07:05:58;100273.72;;;22.62;55.91
58072;BME280;60383;46.626;18.866;2023-07-31T07:08:24;100275.78;;;22.67;54.56
58072;BME280;60383;46.626;18.866;2023-07-31T07:10:49;100278.59;;;22.91;55.15
58072;BME280;60383;46.626;18.866;2023-07-31T07:13:15;100282.38;;;23.20;54.12
58072;BME280;60383;46.626;18.866;2023-07-31T07:15:40;100281.63;;;23.37;54.10
58072;BME280;60383;46.626;18.866;2023-07-31T07:18:06;100285.22;;;23.61;51.82
58072;BME280;60383;46.626;18.866;2023-07-31T07:20:32;100284.06;;;23.74;50.42
58072;BME280;60383;46.626;18.866;2023-07-31T07:22:57;100294.31;;;23.68;49.70
58072;BME280;60383;46.626;18.866;2023-07-31T07:25:23;100290.53;;;23.63;48.50
58072;BME280;60383;46.626;18.866;2023-07-31T07:27:49;100288.72;;;23.68;50.39
58072;BME280;60383;46.626;18.866;2023-07-31T07:30:14;100295.13;;;23.69;49.54
58072;BME280;60383;46.626;18.866;2023-07-31T07:32:40;100297.84;;;23.64;49.48
58072;BME280;60383;46.626;18.866;2023-07-31T07:35:06;100301.22;;;24.06;49.31
58072;BME280;60383;46.626;18.866;2023-07-31T07:37:31;100298.59;;;24.17;49.04
58072;BME280;60383;46.626;18.866;2023-07-31T07:39:57;100296.09;;;24.32;50.13
58072;BME280;60383;46.626;18.866;2023-07-31T07:42:23;100290.69;;;24.43;48.88
58072;BME280;60383;46.626;18.866;2023-07-31T07:44:48;100291.81;;;24.59;47.44
58072;BME280;60383;46.626;18.866;2023-07-31T07:47:14;100289.59;;;24.44;47.41
58072;BME280;60383;46.626;18.866;2023-07-31T07:49:39;100285.91;;;24.72;46.95
58072;BME280;60383;46.626;18.866;2023-07-31T07:52:05;100285.53;;;24.85;44.72
58072;BME280;60383;46.626;18.866;2023-07-31T07:54:31;100288.00;;;24.82;45.51
58072;BME280;60383;46.626;18.866;2023-07-31T07:56:56;100285.81;;;24.84;44.92
58072;BME280;60383;46.626;18.866;2023-07-31T07:59:22;100280.94;;;24.96;44.04
58072;BME280;60383;46.626;18.866;2023-07-31T08:01:47;100285.91;;;25.11;42.57
58072;BME280;60383;46.626;18.866;2023-07-31T08:04:13;100285.47;;;25.19;42.58
58072;BME280;60383;46.626;18.866;2023-07-31T08:06:38;100282.03;;;25.34;42.38
58072;BME280;60383;46.626;18.866;2023-07-31T08:09:04;100286.50;;;25.13;41.65
58072;BME280;60383;46.626;18.866;2023-07-31T08:11:32;100290.44;;;25.34;41.27
58072;BME280;60383;46.626;18.866;2023-07-31T08:13:57;100289.84;;;25.49;41.08
58072;BME280;60383;46.626;18.866;2023-07-31T08:16:23;100288.03;;;25.60;41.05
58072;BME280;60383;46.626;18.866;2023-07-31T08:18:48;100274.34;;;25.64;40.90
58072;BME280;60383;46.626;18.866;2023-07-31T08:21:14;100284.50;;;25.70;39.04
58072;BME280;60383;46.626;18.866;2023-07-31T08:23:40;100292.38;;;25.73;39.39
58072;BME280;60383;46.626;18.866;2023-07-31T08:26:05;100287.03;;;25.72;39.93
58072;BME280;60383;46.626;18.866;2023-07-31T08:28:31;100289.19;;;25.64;39.75
58072;BME280;60383;46.626;18.866;2023-07-31T08:30:56;100285.78;;;25.62;40.05
58072;BME280;60383;46.626;18.866;2023-07-31T08:33:22;100289.59;;;25.51;40.48
58072;BME280;60383;46.626;18.866;2023-07-31T08:35:47;100289.38;;;25.58;40.61
58072;BME280;60383;46.626;18.866;2023-07-31T08:38:13;100292.31;;;25.68;41.83
58072;BME280;60383;46.626;18.866;2023-07-31T08:40:39;100287.94;;;25.77;41.64
58072;BME280;60383;46.626;18.866;2023-07-31T08:43:04;100286.34;;;25.87;40.91
58072;BME280;60383;46.626;18.866;2023-07-31T08:45:30;100286.75;;;25.73;40.42
58072;BME280;60383;46.626;18.866;2023-07-31T08:47:58;100289.94;;;26.04;39.84
58072;BME280;60383;46.626;18.866;2023-07-31T08:50:24;100292.13;;;26.02;39.70
58072;BME280;60383;46.626;18.866;2023-07-31T08:52:51;100293.25;;;26.01;39.56
58072;BME280;60383;46.626;18.866;2023-07-31T08:55:17;100288.16;;;26.20;38.32
58072;BME280;60383;46.626;18.866;2023-07-31T08:57:48;100288.16;;;26.20;40.41
58072;BME280;60383;46.626;18.866;2023-07-31T09:00:16;100288.25;;;26.30;38.43
58072;BME280;60383;46.626;18.866;2023-07-31T09:02:46;100289.09;;;26.31;38.23
58072;BME280;60383;46.626;18.866;2023-07-31T09:05:12;100285.31;;;26.47;38.79
58072;BME280;60383;46.626;18.866;2023-07-31T09:07:38;100287.47;;;26.73;39.38
58072;BME280;60383;46.626;18.866;2023-07-31T09:10:05;100289.53;;;26.77;37.56
58072;BME280;60383;46.626;18.866;2023-07-31T09:12:31;100284.81;;;26.88;37.65
58072;BME280;60383;46.626;18.866;2023-07-31T09:14:57;100272.16;;;26.81;37.31
58072;BME280;60383;46.626;18.866;2023-07-31T09:17:33;100279.78;;;26.90;37.73
58072;BME280;60383;46.626;18.866;2023-07-31T09:20:19;100270.88;;;27.04;37.35
58072;BME280;60383;46.626;18.866;2023-07-31T09:22:46;100276.25;;;27.10;37.54
58072;BME280;60383;46.626;18.866;2023-07-31T09:25:15;100282.25;;;27.24;37.80
58072;BME280;60383;46.626;18.866;2023-07-31T09:27:54;100277.13;;;27.11;35.54
58072;BME280;60383;46.626;18.866;2023-07-31T09:30:20;100282.59;;;26.90;36.01
58072;BME280;60383;46.626;18.866;2023-07-31T09:32:47;100274.06;;;27.18;36.29
58072;BME280;60383;46.626;18.866;2023-07-31T09:37:41;100266.72;;;27.60;37.22
58072;BME280;60383;46.626;18.866;2023-07-31T09:40:06;100272.03;;;27.61;37.56
58072;BME280;60383;46.626;18.866;2023-07-31T09:42:34;100264.25;;;27.89;35.11
58072;BME280;60383;46.626;18.866;2023-07-31T09:45:08;100268.78;;;27.90;35.39
58072;BME280;60383;46.626;18.866;2023-07-31T09:47:34;100266.72;;;27.70;35.65
58072;BME280;60383;46.626;18.866;2023-07-31T09:50:00;100259.72;;;27.78;35.62
58072;BME280;60383;46.626;18.866;2023-07-31T09:52:26;100256.06;;;27.87;33.72
58072;BME280;60383;46.626;18.866;2023-07-31T09:54:52;100250.44;;;27.87;34.74
58072;BME280;60383;46.626;18.866;2023-07-31T09:57:21;100262.03;;;27.96;33.83
58072;BME280;60383;46.626;18.866;2023-07-31T09:59:48;100253.50;;;27.65;34.13
58072;BME280;60383;46.626;18.866;2023-07-31T10:02:15;100262.84;;;27.86;35.43
58072;BME280;60383;46.626;18.866;2023-07-31T10:04:49;100261.69;;;27.87;35.68
58072;BME280;60383;46.626;18.866;2023-07-31T10:07:17;100264.84;;;28.01;35.50
58072;BME280;60383;46.626;18.866;2023-07-31T10:09:44;100260.13;;;28.28;34.80
58072;BME280;60383;46.626;18.866;2023-07-31T10:12:12;100264.34;;;28.25;34.65
58072;BME280;60383;46.626;18.866;2023-07-31T10:14:40;100256.47;;;28.17;34.97
58072;BME280;60383;46.626;18.866;2023-07-31T10:17:07;100249.69;;;28.08;34.93
58072;BME280;60383;46.626;18.866;2023-07-31T10:19:34;100262.94;;;28.17;34.00
58072;BME280;60383;46.626;18.866;2023-07-31T10:22:00;100253.94;;;28.20;34.35
58072;BME280;60383;46.626;18.866;2023-07-31T10:24:28;100261.53;;;28.15;35.30
58072;BME280;60383;46.626;18.866;2023-07-31T10:26:57;100258.44;;;28.42;34.93
58072;BME280;60383;46.626;18.866;2023-07-31T10:29:24;100264.06;;;28.63;33.46
58072;BME280;60383;46.626;18.866;2023-07-31T10:31:50;100258.16;;;28.54;33.97
58072;BME280;60383;46.626;18.866;2023-07-31T10:34:16;100259.31;;;28.79;34.23
58072;BME280;60383;46.626;18.866;2023-07-31T10:36:42;100259.56;;;28.77;33.81
58072;BME280;60383;46.626;18.866;2023-07-31T10:39:36;100253.69;;;28.79;33.78
58072;BME280;60383;46.626;18.866;2023-07-31T10:42:13;100244.34;;;28.83;34.11
58072;BME280;60383;46.626;18.866;2023-07-31T10:44:43;100234.75;;;29.00;33.16
58072;BME280;60383;46.626;18.866;2023-07-31T10:47:09;100238.09;;;29.07;32.95
58072;BME280;60383;46.626;18.866;2023-07-31T10:49:34;100235.06;;;28.93;34.18
58072;BME280;60383;46.626;18.866;2023-07-31T10:52:03;100232.25;;;28.83;34.45
58072;BME280;60383;46.626;18.866;2023-07-31T10:54:28;100224.91;;;28.92;33.59
58072;BME280;60383;46.626;18.866;2023-07-31T10:56:54;100241.22;;;28.95;33.95
58072;BME280;60383;46.626;18.866;2023-07-31T10:59:19;100232.81;;;28.75;33.87
58072;BME280;60383;46.626;18.866;2023-07-31T11:01:55;100233.09;;;28.89;33.71
58072;BME280;60383;46.626;18.866;2023-07-31T11:04:26;100233.00;;;29.14;33.49
58072;BME280;60383;46.626;18.866;2023-07-31T11:07:00;100222.84;;;29.24;31.63
58072;BME280;60383;46.626;18.866;2023-07-31T11:09:30;100217.81;;;29.05;31.57
58072;BME280;60383;46.626;18.866;2023-07-31T11:11:56;100213.63;;;28.87;32.53
58072;BME280;60383;46.626;18.866;2023-07-31T11:14:22;100206.00;;;28.98;32.21
58072;BME280;60383;46.626;18.866;2023-07-31T11:16:51;100210.81;;;28.87;32.31
58072;BME280;60383;46.626;18.866;2023-07-31T11:19:25;100206.81;;;29.09;31.93
58072;BME280;60383;46.626;18.866;2023-07-31T11:21:54;100200.31;;;29.13;33.08
58072;BME280;60383;46.626;18.866;2023-07-31T11:24:20;100209.63;;;29.14;33.31
58072;BME280;60383;46.626;18.866;2023-07-31T11:26:52;100202.91;;;28.99;31.40
58072;BME280;60383;46.626;18.866;2023-07-31T11:29:18;100200.81;;;29.26;31.53
58072;BME280;60383;46.626;18.866;2023-07-31T11:31:44;100198.38;;;29.04;32.05
58072;BME280;60383;46.626;18.866;2023-07-31T11:34:10;100207.34;;;29.16;32.73
58072;BME280;60383;46.626;18.866;2023-07-31T11:36:35;100202.81;;;29.30;31.85
58072;BME280;60383;46.626;18.866;2023-07-31T11:39:10;100189.28;;;29.27;31.72
58072;BME280;60383;46.626;18.866;2023-07-31T11:41:36;100197.53;;;28.98;31.58
58072;BME280;60383;46.626;18.866;2023-07-31T11:44:05;100196.72;;;28.87;33.61
58072;BME280;60383;46.626;18.866;2023-07-31T11:46:31;100196.88;;;29.27;33.14
58072;BME280;60383;46.626;18.866;2023-07-31T11:49:00;100198.69;;;28.92;32.30
58072;BME280;60383;46.626;18.866;2023-07-31T11:51:27;100194.31;;;29.36;31.89
58072;BME280;60383;46.626;18.866;2023-07-31T11:53:57;100180.53;;;29.34;31.05
58072;BME280;60383;46.626;18.866;2023-07-31T11:56:24;100194.78;;;28.82;32.18
58072;BME280;60383;46.626;18.866;2023-07-31T11:58:56;100185.38;;;29.13;33.06
58072;BME280;60383;46.626;18.866;2023-07-31T12:01:22;100183.94;;;29.31;33.24
58072;BME280;60383;46.626;18.866;2023-07-31T12:03:49;100183.28;;;29.50;32.90
58072;BME280;60383;46.626;18.866;2023-07-31T12:06:15;100177.66;;;29.44;32.37
58072;BME280;60383;46.626;18.866;2023-07-31T12:08:41;100177.38;;;29.46;32.41
58072;BME280;60383;46.626;18.866;2023-07-31T12:11:08;100173.41;;;29.47;33.19
58072;BME280;60383;46.626;18.866;2023-07-31T12:13:36;100172.34;;;29.27;32.99
58072;BME280;60383;46.626;18.866;2023-07-31T12:16:03;100170.34;;;29.38;33.65
58072;BME280;60383;46.626;18.866;2023-07-31T12:18:33;100165.53;;;29.44;33.04
58072;BME280;60383;46.626;18.866;2023-07-31T12:21:02;100163.78;;;29.53;33.29
58072;BME280;60383;46.626;18.866;2023-07-31T12:23:29;100162.03;;;29.62;33.12
58072;BME280;60383;46.626;18.866;2023-07-31T12:28:39;100154.59;;;29.77;33.19
58072;BME280;60383;46.626;18.866;2023-07-31T12:31:05;100156.19;;;29.48;33.19
58072;BME280;60383;46.626;18.866;2023-07-31T12:33:33;100141.88;;;29.40;32.92
58072;BME280;60383;46.626;18.866;2023-07-31T12:36:01;100148.81;;;29.58;33.46
58072;BME280;60383;46.626;18.866;2023-07-31T12:38:27;100141.53;;;29.46;33.81
58072;BME280;60383;46.626;18.866;2023-07-31T12:40:52;100141.38;;;29.72;33.98
58072;BME280;60383;46.626;18.866;2023-07-31T12:43:18;100138.31;;;29.63;34.26
58072;BME280;60383;46.626;18.866;2023-07-31T12:45:43;100134.94;;;29.67;32.61
58072;BME280;60383;46.626;18.866;2023-07-31T12:48:09;100131.25;;;29.66;32.76